sensor_id;sensor_type;location;lat;lon;timestamp;P1;durP1;ratioP1;P2;durP2;ratioP2
77563;SDS011;66703;48.076;9.220;2023-03-31T00:01:44;12.70;;;11.75;;
77563;SDS011;66703;48.076;9.220;2023-03-31T00:08:47;15.50;;;14.57;;
77563;SDS011;66703;48.076;9.220;2023-03-31T00:25:57;18.05;;;17.05;;
77563;SDS011;66703;48.076;9.220;2023-03-31T00:36:08;15.10;;;14.23;;
77563;SDS011;66703;48.076;9.220;2023-03-31T00:42:55;13.68;;;13.07;;
77563;SDS011;66703;48.076;9.220;2023-03-31T01:10:23;15.23;;;14.32;;
77563;SDS011;66703;48.076;9.220;2023-03-31T02:18:31;13.13;;;12.13;;
77563;SDS011;66703;48.076;9.220;2023-03-31T02:39:37;18.08;;;17.13;;
77563;SDS011;66703;48.076;9.220;2023-03-31T02:53:17;13.35;;;12.45;;
77563;SDS011;66703;48.076;9.220;2023-03-31T04:35:27;17.00;;;15.75;;
77563;SDS011;66703;48.076;9.220;2023-03-31T04:49:29;17.75;;;16.70;;
77563;SDS011;66703;48.076;9.220;2023-03-31T04:52:23;29.13;;;27.58;;
77563;SDS011;66703;48.076;9.220;2023-03-31T04:55:48;19.15;;;17.95;;
77563;SDS011;66703;48.076;9.220;2023-03-31T04:59:03;13.43;;;12.43;;
77563;SDS011;66703;48.076;9.220;2023-03-31T05:02:43;16.35;;;15.07;;
77563;SDS011;66703;48.076;9.220;2023-03-31T05:05:57;16.98;;;15.75;;
77563;SDS011;66703;48.076;9.220;2023-03-31T05:15:37;23.67;;;22.17;;
77563;SDS011;66703;48.076;9.220;2023-03-31T05:26:06;15.93;;;14.70;;
77563;SDS011;66703;48.076;9.220;2023-03-31T05:28:56;27.90;;;26.50;;
77563;SDS011;66703;48.076;9.220;2023-03-31T05:41:46;18.52;;;17.27;;
77563;SDS011;66703;48.076;9.220;2023-03-31T05:44:44;17.77;;;16.58;;
77563;SDS011;66703;48.076;9.220;2023-03-31T05:47:10;24.23;;;22.73;;
77563;SDS011;66703;48.076;9.220;2023-03-31T05:49:37;18.10;;;16.73;;
77563;SDS011;66703;48.076;9.220;2023-03-31T05:52:23;18.70;;;17.20;;
77563;SDS011;66703;48.076;9.220;2023-03-31T05:58:32;18.67;;;17.30;;
77563;SDS011;66703;48.076;9.220;2023-03-31T06:31:28;19.85;;;18.45;;
77563;SDS011;66703;48.076;9.220;2023-03-31T07:46:45;6.70;;;6.40;;
77563;SDS011;66703;48.076;9.220;2023-03-31T08:33:56;5.28;;;5.00;;
77563;SDS011;66703;48.076;9.220;2023-03-31T08:40:47;6.68;;;6.18;;
77563;SDS011;66703;48.076;9.220;2023-03-31T09:34:33;3.88;;;3.28;;
77563;SDS011;66703;48.076;9.220;2023-03-31T09:37:00;4.70;;;3.92;;
77563;SDS011;66703;48.076;9.220;2023-03-31T09:39:26;3.33;;;3.03;;
77563;SDS011;66703;48.076;9.220;2023-03-31T09:41:51;2.92;;;2.65;;
77563;SDS011;66703;48.076;9.220;2023-03-31T09:44:22;3.47;;;3.28;;
77563;SDS011;66703;48.076;9.220;2023-03-31T09:46:57;5.45;;;5.10;;
77563;SDS011;66703;48.076;9.220;2023-03-31T09:49:24;10.05;;;9.38;;
77563;SDS011;66703;48.076;9.220;2023-03-31T09:52:00;5.38;;;4.43;;
77563;SDS011;66703;48.076;9.220;2023-03-31T09:57:13;6.68;;;6.20;;
77563;SDS011;66703;48.076;9.220;2023-03-31T09:59:53;5.38;;;5.07;;
77563;SDS011;66703;48.076;9.220;2023-03-31T10:04:59;4.22;;;3.13;;
77563;SDS011;66703;48.076;9.220;2023-03-31T10:07:25;5.72;;;3.63;;
77563;SDS011;66703;48.076;9.220;2023-03-31T10:09:51;4.45;;;3.47;;
77563;SDS011;66703;48.076;9.220;2023-03-31T10:12:19;4.35;;;3.95;;
77563;SDS011;66703;48.076;9.220;2023-03-31T10:14:49;3.83;;;3.53;;
77563;SDS011;66703;48.076;9.220;2023-03-31T10:17:21;4.82;;;4.38;;
77563;SDS011;66703;48.076;9.220;2023-03-31T10:19:58;5.53;;;4.85;;
77563;SDS011;66703;48.076;9.220;2023-03-31T10:22:28;6.30;;;5.90;;
77563;SDS011;66703;48.076;9.220;2023-03-31T10:25:19;4.60;;;4.30;;
77563;SDS011;66703;48.076;9.220;2023-03-31T10:27:44;4.47;;;4.18;;
77563;SDS011;66703;48.076;9.220;2023-03-31T10:30:23;3.83;;;3.55;;
77563;SDS011;66703;48.076;9.220;2023-03-31T10:32:50;5.25;;;4.97;;
77563;SDS011;66703;48.076;9.220;2023-03-31T10:35:26;4.38;;;4.07;;
77563;SDS011;66703;48.076;9.220;2023-03-31T10:37:57;5.78;;;5.20;;
77563;SDS011;66703;48.076;9.220;2023-03-31T10:43:00;3.97;;;3.63;;
77563;SDS011;66703;48.076;9.220;2023-03-31T10:45:29;4.75;;;3.08;;
77563;SDS011;66703;48.076;9.220;2023-03-31T10:47:57;4.60;;;3.78;;
77563;SDS011;66703;48.076;9.220;2023-03-31T10:50:27;5.18;;;4.88;;
77563;SDS011;66703;48.076;9.220;2023-03-31T10:52:59;5.13;;;4.55;;
77563;SDS011;66703;48.076;9.220;2023-03-31T10:55:29;3.55;;;3.25;;
77563;SDS011;66703;48.076;9.220;2023-03-31T10:58:05;6.45;;;2.72;;
77563;SDS011;66703;48.076;9.220;2023-03-31T11:26:10;3.30;;;2.97;;
77563;SDS011;66703;48.076;9.220;2023-03-31T12:29:55;3.25;;;2.83;;
77563;SDS011;66703;48.076;9.220;2023-03-31T12:40:02;4.90;;;3.25;;
77563;SDS011;66703;48.076;9.220;2023-03-31T13:12:31;5.20;;;4.90;;
77563;SDS011;66703;48.076;9.220;2023-03-31T13:15:17;5.78;;;5.50;;
77563;SDS011;66703;48.076;9.220;2023-03-31T13:18:19;6.78;;;6.47;;
77563;SDS011;66703;48.076;9.220;2023-03-31T13:29:08;5.68;;;5.43;;
77563;SDS011;66703;48.076;9.220;2023-03-31T13:35:45;7.78;;;7.43;;
77563;SDS011;66703;48.076;9.220;2023-03-31T14:18:37;4.65;;;4.15;;
77563;SDS011;66703;48.076;9.220;2023-03-31T14:38:38;6.45;;;6.03;;
77563;SDS011;66703;48.076;9.220;2023-03-31T14:41:19;6.03;;;5.63;;
77563;SDS011;66703;48.076;9.220;2023-03-31T14:47:57;6.97;;;6.45;;
77563;SDS011;66703;48.076;9.220;2023-03-31T14:51:02;5.72;;;5.32;;
77563;SDS011;66703;48.076;9.220;2023-03-31T14:54:22;7.10;;;6.57;;
77563;SDS011;66703;48.076;9.220;2023-03-31T14:57:19;8.20;;;7.88;;
77563;SDS011;66703;48.076;9.220;2023-03-31T15:00:51;8.35;;;7.97;;
77563;SDS011;66703;48.076;9.220;2023-03-31T15:04:20;10.48;;;9.85;;
77563;SDS011;66703;48.076;9.220;2023-03-31T15:11:18;10.40;;;9.82;;
77563;SDS011;66703;48.076;9.220;2023-03-31T15:14:54;10.95;;;10.52;;
77563;SDS011;66703;48.076;9.220;2023-03-31T15:18:31;8.68;;;8.02;;
77563;SDS011;66703;48.076;9.220;2023-03-31T15:38:40;8.02;;;7.63;;
77563;SDS011;66703;48.076;9.220;2023-03-31T15:41:10;9.45;;;9.05;;
77563;SDS011;66703;48.076;9.220;2023-03-31T15:46:07;13.45;;;13.05;;
77563;SDS011;66703;48.076;9.220;2023-03-31T15:48:47;11.02;;;10.68;;
77563;SDS011;66703;48.076;9.220;2023-03-31T15:52:15;12.75;;;12.25;;
77563;SDS011;66703;48.076;9.220;2023-03-31T15:54:45;5.45;;;5.15;;
77563;SDS011;66703;48.076;9.220;2023-03-31T15:57:14;15.20;;;14.65;;
77563;SDS011;66703;48.076;9.220;2023-03-31T15:59:48;10.70;;;10.30;;
77563;SDS011;66703;48.076;9.220;2023-03-31T16:03:26;13.63;;;13.07;;
77563;SDS011;66703;48.076;9.220;2023-03-31T16:19:25;5.65;;;5.30;;
77563;SDS011;66703;48.076;9.220;2023-03-31T16:26:27;8.20;;;7.72;;
77563;SDS011;66703;48.076;9.220;2023-03-31T16:29:04;5.38;;;5.00;;
77563;SDS011;66703;48.076;9.220;2023-03-31T16:31:37;6.90;;;6.55;;
77563;SDS011;66703;48.076;9.220;2023-03-31T16:38:25;9.95;;;9.45;;
77563;SDS011;66703;48.076;9.220;2023-03-31T16:41:57;8.43;;;7.97;;
77563;SDS011;66703;48.076;9.220;2023-03-31T16:44:37;6.78;;;6.43;;
77563;SDS011;66703;48.076;9.220;2023-03-31T16:47:04;11.23;;;10.52;;
77563;SDS011;66703;48.076;9.220;2023-03-31T16:49:30;8.15;;;7.75;;
77563;SDS011;66703;48.076;9.220;2023-03-31T16:51:55;7.18;;;6.88;;
77563;SDS011;66703;48.076;9.220;2023-03-31T16:54:21;8.88;;;8.48;;
77563;SDS011;66703;48.076;9.220;2023-03-31T16:56:46;9.98;;;9.48;;
77563;SDS011;66703;48.076;9.220;2023-03-31T16:59:12;9.05;;;8.52;;
77563;SDS011;66703;48.076;9.220;2023-03-31T17:01:38;10.07;;;9.50;;
77563;SDS011;66703;48.076;9.220;2023-03-31T17:04:03;4.05;;;3.42;;
77563;SDS011;66703;48.076;9.220;2023-03-31T17:06:29;9.23;;;8.50;;
77563;SDS011;66703;48.076;9.220;2023-03-31T17:08:54;9.07;;;8.57;;
77563;SDS011;66703;48.076;9.220;2023-03-31T17:11:20;14.13;;;13.50;;
77563;SDS011;66703;48.076;9.220;2023-03-31T17:13:46;9.43;;;9.05;;
77563;SDS011;66703;48.076;9.220;2023-03-31T17:16:13;9.82;;;9.48;;
77563;SDS011;66703;48.076;9.220;2023-03-31T17:18:42;9.82;;;9.43;;
77563;SDS011;66703;48.076;9.220;2023-03-31T17:21:09;13.60;;;12.90;;
77563;SDS011;66703;48.076;9.220;2023-03-31T17:23:35;11.07;;;10.55;;
77563;SDS011;66703;48.076;9.220;2023-03-31T17:26:02;11.77;;;11.27;;
77563;SDS011;66703;48.076;9.220;2023-03-31T17:28:28;10.30;;;9.77;;
77563;SDS011;66703;48.076;9.220;2023-03-31T17:30:55;12.88;;;12.38;;
77563;SDS011;66703;48.076;9.220;2023-03-31T17:33:21;9.15;;;8.68;;
77563;SDS011;66703;48.076;9.220;2023-03-31T17:35:47;12.93;;;12.35;;
77563;SDS011;66703;48.076;9.220;2023-03-31T17:38:13;15.75;;;15.02;;
77563;SDS011;66703;48.076;9.220;2023-03-31T17:40:39;12.98;;;12.48;;
77563;SDS011;66703;48.076;9.220;2023-03-31T17:43:05;13.98;;;13.48;;
77563;SDS011;66703;48.076;9.220;2023-03-31T17:45:30;10.50;;;10.02;;
77563;SDS011;66703;48.076;9.220;2023-03-31T17:47:57;12.30;;;11.63;;
77563;SDS011;66703;48.076;9.220;2023-03-31T17:50:23;10.85;;;10.35;;
77563;SDS011;66703;48.076;9.220;2023-03-31T17:52:49;11.35;;;10.85;;
77563;SDS011;66703;48.076;9.220;2023-03-31T17:55:15;12.63;;;11.95;;
77563;SDS011;66703;48.076;9.220;2023-03-31T17:57:41;9.93;;;9.52;;
77563;SDS011;66703;48.076;9.220;2023-03-31T18:00:07;13.77;;;13.15;;
77563;SDS011;66703;48.076;9.220;2023-03-31T18:02:40;12.90;;;12.32;;
77563;SDS011;66703;48.076;9.220;2023-03-31T18:05:05;12.57;;;12.05;;
77563;SDS011;66703;48.076;9.220;2023-03-31T18:07:32;10.02;;;9.57;;
77563;SDS011;66703;48.076;9.220;2023-03-31T18:09:59;6.88;;;6.55;;
77563;SDS011;66703;48.076;9.220;2023-03-31T18:12:24;8.75;;;8.27;;
77563;SDS011;66703;48.076;9.220;2023-03-31T18:14:53;12.00;;;11.40;;
77563;SDS011;66703;48.076;9.220;2023-03-31T18:17:22;4.65;;;4.40;;
77563;SDS011;66703;48.076;9.220;2023-03-31T18:19:48;9.02;;;8.52;;
77563;SDS011;66703;48.076;9.220;2023-03-31T18:22:16;11.77;;;11.23;;
77563;SDS011;66703;48.076;9.220;2023-03-31T18:24:41;9.85;;;9.35;;
77563;SDS011;66703;48.076;9.220;2023-03-31T18:27:08;8.32;;;7.63;;
77563;SDS011;66703;48.076;9.220;2023-03-31T18:29:33;7.00;;;6.43;;
77563;SDS011;66703;48.076;9.220;2023-03-31T18:31:59;7.97;;;7.38;;
77563;SDS011;66703;48.076;9.220;2023-03-31T18:34:25;10.52;;;9.90;;
77563;SDS011;66703;48.076;9.220;2023-03-31T18:36:51;8.40;;;8.00;;
77563;SDS011;66703;48.076;9.220;2023-03-31T18:39:16;7.35;;;6.93;;
77563;SDS011;66703;48.076;9.220;2023-03-31T18:41:45;12.35;;;11.85;;
77563;SDS011;66703;48.076;9.220;2023-03-31T18:44:14;8.77;;;8.18;;
77563;SDS011;66703;48.076;9.220;2023-03-31T18:46:45;14.75;;;13.95;;
77563;SDS011;66703;48.076;9.220;2023-03-31T18:49:14;7.40;;;7.05;;
77563;SDS011;66703;48.076;9.220;2023-03-31T18:51:39;8.60;;;8.20;;
77563;SDS011;66703;48.076;9.220;2023-03-31T18:54:05;12.20;;;11.57;;
77563;SDS011;66703;48.076;9.220;2023-03-31T18:56:34;19.58;;;18.58;;
77563;SDS011;66703;48.076;9.220;2023-03-31T18:59:11;10.30;;;9.52;;
77563;SDS011;66703;48.076;9.220;2023-03-31T19:01:37;11.63;;;11.05;;
77563;SDS011;66703;48.076;9.220;2023-03-31T19:04:10;12.02;;;11.07;;
77563;SDS011;66703;48.076;9.220;2023-03-31T19:06:38;12.02;;;11.50;;
77563;SDS011;66703;48.076;9.220;2023-03-31T19:09:11;14.95;;;14.35;;
77563;SDS011;66703;48.076;9.220;2023-03-31T19:11:36;15.85;;;15.23;;
77563;SDS011;66703;48.076;9.220;2023-03-31T19:14:06;12.50;;;12.10;;
77563;SDS011;66703;48.076;9.220;2023-03-31T19:16:32;11.40;;;10.63;;
77563;SDS011;66703;48.076;9.220;2023-03-31T19:19:05;11.52;;;11.13;;
77563;SDS011;66703;48.076;9.220;2023-03-31T19:21:31;13.63;;;13.05;;
77563;SDS011;66703;48.076;9.220;2023-03-31T19:24:00;9.50;;;9.00;;
77563;SDS011;66703;48.076;9.220;2023-03-31T19:26:28;13.32;;;12.57;;
77563;SDS011;66703;48.076;9.220;2023-03-31T19:28:56;12.18;;;11.68;;
77563;SDS011;66703;48.076;9.220;2023-03-31T19:31:22;13.30;;;12.85;;
77563;SDS011;66703;48.076;9.220;2023-03-31T19:33:51;13.60;;;13.02;;
77563;SDS011;66703;48.076;9.220;2023-03-31T19:36:17;10.13;;;9.73;;
77563;SDS011;66703;48.076;9.220;2023-03-31T19:38:46;9.00;;;8.48;;
77563;SDS011;66703;48.076;9.220;2023-03-31T19:41:11;12.35;;;11.80;;
77563;SDS011;66703;48.076;9.220;2023-03-31T19:43:39;18.20;;;17.55;;
77563;SDS011;66703;48.076;9.220;2023-03-31T19:46:05;20.27;;;19.23;;
77563;SDS011;66703;48.076;9.220;2023-03-31T19:48:32;12.60;;;11.98;;
77563;SDS011;66703;48.076;9.220;2023-03-31T19:50:59;15.73;;;14.95;;
77563;SDS011;66703;48.076;9.220;2023-03-31T19:53:26;11.02;;;10.52;;
77563;SDS011;66703;48.076;9.220;2023-03-31T19:56:06;17.38;;;16.67;;
77563;SDS011;66703;48.076;9.220;2023-03-31T19:58:33;23.40;;;22.45;;
77563;SDS011;66703;48.076;9.220;2023-03-31T20:01:00;14.18;;;13.45;;
77563;SDS011;66703;48.076;9.220;2023-03-31T20:03:27;13.05;;;12.45;;
77563;SDS011;66703;48.076;9.220;2023-03-31T20:08:27;17.33;;;16.60;;
77563;SDS011;66703;48.076;9.220;2023-03-31T20:10:57;13.00;;;12.38;;
77563;SDS011;66703;48.076;9.220;2023-03-31T20:13:23;18.00;;;17.38;;
77563;SDS011;66703;48.076;9.220;2023-03-31T20:15:56;13.25;;;12.65;;
77563;SDS011;66703;48.076;9.220;2023-03-31T20:18:25;18.02;;;17.33;;
77563;SDS011;66703;48.076;9.220;2023-03-31T20:20:59;9.40;;;9.10;;
77563;SDS011;66703;48.076;9.220;2023-03-31T20:23:26;13.25;;;12.65;;
77563;SDS011;66703;48.076;9.220;2023-03-31T20:25:52;10.20;;;9.80;;
77563;SDS011;66703;48.076;9.220;2023-03-31T20:28:18;15.10;;;14.60;;
77563;SDS011;66703;48.076;9.220;2023-03-31T20:30:43;10.82;;;10.13;;
77563;SDS011;66703;48.076;9.220;2023-03-31T20:33:08;12.57;;;12.10;;
77563;SDS011;66703;48.076;9.220;2023-03-31T20:35:34;11.32;;;10.93;;
77563;SDS011;66703;48.076;9.220;2023-03-31T20:38:01;11.20;;;10.60;;
77563;SDS011;66703;48.076;9.220;2023-03-31T20:40:26;17.52;;;16.90;;
77563;SDS011;66703;48.076;9.220;2023-03-31T20:42:52;11.93;;;11.23;;
77563;SDS011;66703;48.076;9.220;2023-03-31T20:45:20;11.35;;;10.77;;
77563;SDS011;66703;48.076;9.220;2023-03-31T20:47:46;10.88;;;10.23;;
77563;SDS011;66703;48.076;9.220;2023-03-31T20:50:11;20.70;;;20.02;;
77563;SDS011;66703;48.076;9.220;2023-03-31T20:52:37;6.80;;;6.47;;
77563;SDS011;66703;48.076;9.220;2023-03-31T20:55:02;20.90;;;20.23;;
77563;SDS011;66703;48.076;9.220;2023-03-31T20:57:28;10.25;;;9.85;;
77563;SDS011;66703;48.076;9.220;2023-03-31T20:59:53;15.93;;;15.43;;
77563;SDS011;66703;48.076;9.220;2023-03-31T21:02:21;11.45;;;11.00;;
77563;SDS011;66703;48.076;9.220;2023-03-31T21:04:46;11.48;;;10.65;;
77563;SDS011;66703;48.076;9.220;2023-03-31T21:07:12;10.18;;;9.57;;
77563;SDS011;66703;48.076;9.220;2023-03-31T21:09:37;13.23;;;12.68;;
77563;SDS011;66703;48.076;9.220;2023-03-31T21:12:02;15.60;;;15.00;;
77563;SDS011;66703;48.076;9.220;2023-03-31T21:14:29;6.95;;;6.53;;
77563;SDS011;66703;48.076;9.220;2023-03-31T21:16:54;15.85;;;15.25;;
77563;SDS011;66703;48.076;9.220;2023-03-31T21:19:20;15.35;;;14.68;;
77563;SDS011;66703;48.076;9.220;2023-03-31T21:21:45;13.52;;;12.82;;
77563;SDS011;66703;48.076;9.220;2023-03-31T21:24:11;25.35;;;24.50;;
77563;SDS011;66703;48.076;9.220;2023-03-31T21:26:37;14.00;;;13.40;;
77563;SDS011;66703;48.076;9.220;2023-03-31T21:29:03;11.40;;;10.98;;
77563;SDS011;66703;48.076;9.220;2023-03-31T21:31:28;13.25;;;12.75;;
77563;SDS011;66703;48.076;9.220;2023-03-31T21:33:54;12.45;;;11.98;;
77563;SDS011;66703;48.076;9.220;2023-03-31T21:36:21;15.15;;;14.43;;
77563;SDS011;66703;48.076;9.220;2023-03-31T21:38:47;12.60;;;12.10;;
77563;SDS011;66703;48.076;9.220;2023-03-31T21:41:14;10.55;;;9.98;;
77563;SDS011;66703;48.076;9.220;2023-03-31T21:43:41;13.30;;;12.68;;
77563;SDS011;66703;48.076;9.220;2023-03-31T21:46:07;13.60;;;13.10;;
77563;SDS011;66703;48.076;9.220;2023-03-31T21:48:33;17.10;;;16.50;;
77563;SDS011;66703;48.076;9.220;2023-03-31T21:50:58;14.05;;;13.50;;
77563;SDS011;66703;48.076;9.220;2023-03-31T21:53:25;11.15;;;10.73;;
77563;SDS011;66703;48.076;9.220;2023-03-31T21:55:52;15.70;;;15.05;;
77563;SDS011;66703;48.076;9.220;2023-03-31T21:58:19;16.52;;;15.93;;
77563;SDS011;66703;48.076;9.220;2023-03-31T22:00:45;22.65;;;21.95;;
77563;SDS011;66703;48.076;9.220;2023-03-31T22:03:11;14.60;;;13.90;;
77563;SDS011;66703;48.076;9.220;2023-03-31T22:05:37;10.65;;;10.10;;
77563;SDS011;66703;48.076;9.220;2023-03-31T22:08:04;14.77;;;14.18;;
77563;SDS011;66703;48.076;9.220;2023-03-31T22:10:33;10.98;;;10.57;;
77563;SDS011;66703;48.076;9.220;2023-03-31T22:12:58;10.63;;;10.18;;
77563;SDS011;66703;48.076;9.220;2023-03-31T22:15:24;11.52;;;11.02;;
77563;SDS011;66703;48.076;9.220;2023-03-31T22:17:50;10.65;;;10.05;;
77563;SDS011;66703;48.076;9.220;2023-03-31T22:20:15;14.30;;;13.57;;
77563;SDS011;66703;48.076;9.220;2023-03-31T22:22:41;16.10;;;15.55;;
77563;SDS011;66703;48.076;9.220;2023-03-31T22:25:07;14.52;;;13.82;;
77563;SDS011;66703;48.076;9.220;2023-03-31T22:27:33;13.77;;;13.13;;
77563;SDS011;66703;48.076;9.220;2023-03-31T22:30:00;12.85;;;12.35;;
77563;SDS011;66703;48.076;9.220;2023-03-31T22:32:26;13.93;;;13.25;;
77563;SDS011;66703;48.076;9.220;2023-03-31T22:34:52;14.82;;;14.23;;
77563;SDS011;66703;48.076;9.220;2023-03-31T22:37:17;16.35;;;15.68;;
77563;SDS011;66703;48.076;9.220;2023-03-31T22:39:42;14.32;;;13.73;;
77563;SDS011;66703;48.076;9.220;2023-03-31T22:42:09;15.07;;;14.27;;
77563;SDS011;66703;48.076;9.220;2023-03-31T22:44:35;13.32;;;12.82;;
77563;SDS011;66703;48.076;9.220;2023-03-31T22:47:04;16.42;;;15.63;;
77563;SDS011;66703;48.076;9.220;2023-03-31T22:49:30;13.73;;;12.95;;
77563;SDS011;66703;48.076;9.220;2023-03-31T22:51:56;15.45;;;14.85;;
77563;SDS011;66703;48.076;9.220;2023-03-31T22:54:21;14.70;;;13.80;;
77563;SDS011;66703;48.076;9.220;2023-03-31T22:56:47;11.38;;;10.98;;
77563;SDS011;66703;48.076;9.220;2023-03-31T22:59:12;14.75;;;14.25;;
77563;SDS011;66703;48.076;9.220;2023-03-31T23:01:38;11.50;;;10.75;;
77563;SDS011;66703;48.076;9.220;2023-03-31T23:04:03;16.80;;;16.08;;
77563;SDS011;66703;48.076;9.220;2023-03-31T23:06:29;15.82;;;15.05;;
77563;SDS011;66703;48.076;9.220;2023-03-31T23:08:55;11.88;;;11.32;;
77563;SDS011;66703;48.076;9.220;2023-03-31T23:11:21;13.70;;;13.07;;
77563;SDS011;66703;48.076;9.220;2023-03-31T23:13:47;15.35;;;14.75;;
77563;SDS011;66703;48.076;9.220;2023-03-31T23:16:20;19.70;;;18.88;;
77563;SDS011;66703;48.076;9.220;2023-03-31T23:18:47;12.60;;;12.00;;
77563;SDS011;66703;48.076;9.220;2023-03-31T23:21:13;15.75;;;15.02;;
77563;SDS011;66703;48.076;9.220;2023-03-31T23:23:40;13.00;;;12.45;;
77563;SDS011;66703;48.076;9.220;2023-03-31T23:26:06;13.32;;;12.75;;
77563;SDS011;66703;48.076;9.220;2023-03-31T23:28:33;19.05;;;18.08;;
77563;SDS011;66703;48.076;9.220;2023-03-31T23:30:59;18.20;;;17.40;;
77563;SDS011;66703;48.076;9.220;2023-03-31T23:33:26;19.05;;;18.38;;
77563;SDS011;66703;48.076;9.220;2023-03-31T23:35:56;16.42;;;15.82;;
77563;SDS011;66703;48.076;9.220;2023-03-31T23:38:23;17.00;;;16.30;;
77563;SDS011;66703;48.076;9.220;2023-03-31T23:40:48;19.23;;;18.63;;
77563;SDS011;66703;48.076;9.220;2023-03-31T23:43:17;12.45;;;12.00;;
77563;SDS011;66703;48.076;9.220;2023-03-31T23:45:42;12.93;;;12.32;;
77563;SDS011;66703;48.076;9.220;2023-03-31T23:48:08;12.25;;;11.70;;
77563;SDS011;66703;48.076;9.220;2023-03-31T23:50:33;17.25;;;16.58;;
77563;SDS011;66703;48.076;9.220;2023-03-31T23:52:59;12.02;;;11.48;;
77563;SDS011;66703;48.076;9.220;2023-03-31T23:55:25;19.60;;;18.77;;
77563;SDS011;66703;48.076;9.220;2023-03-31T23:57:51;13.10;;;12.57;;
